createdAt,value
2023-12-20T00:01:39.980Z,95.43
2023-12-20T00:04:26.497Z,97.20
2023-12-20T00:07:07.130Z,99.80
2023-12-20T00:09:57.811Z,92.40
2023-12-20T00:12:58.855Z,96.80
2023-12-20T00:15:39.429Z,104.30
2023-12-20T00:18:21.969Z,99.78
2023-12-20T00:20:57.433Z,96.60
2023-12-20T00:23:38.717Z,96.93
2023-12-20T00:26:24.031Z,97.40
2023-12-20T00:29:05.851Z,97.80
2023-12-20T00:31:42.875Z,98.03
2023-12-20T00:34:19.613Z,100.07
2023-12-20T00:37:00.152Z,101.03
2023-12-20T00:39:48.202Z,104.78
2023-12-20T00:42:31.361Z,100.07
2023-12-20T00:45:16.094Z,110.50
2023-12-20T00:47:56.928Z,97.00
2023-12-20T00:50:37.780Z,101.78
2023-12-20T00:53:12.248Z,95.90
2023-12-20T00:55:59.223Z,94.15
2023-12-20T00:58:38.687Z,94.82
2023-12-20T01:01:14.236Z,95.50
2023-12-20T01:04:06.949Z,91.95
2023-12-20T01:06:57.678Z,92.50
2023-12-20T01:09:33.575Z,94.25
2023-12-20T01:12:21.719Z,97.45
2023-12-20T01:14:55.759Z,100.97
2023-12-20T01:17:44.127Z,99.90
2023-12-20T01:20:24.102Z,96.50
2023-12-20T01:23:02.900Z,97.75
2023-12-20T01:25:40.883Z,94.07
2023-12-20T01:28:24.532Z,99.75
2023-12-20T01:31:19.755Z,90.90
2023-12-20T01:33:59.787Z,98.65
2023-12-20T01:36:35.226Z,95.10
2023-12-20T01:39:24.775Z,90.13
2023-12-20T01:42:10.511Z,90.68
2023-12-20T01:44:58.783Z,94.53
2023-12-20T01:47:37.920Z,97.45
2023-12-20T01:50:27.572Z,93.68
2023-12-20T01:53:14.592Z,92.18
2023-12-20T01:56:04.092Z,87.97
2023-12-20T01:58:43.290Z,94.00
2023-12-20T02:01:39.586Z,94.85
2023-12-20T02:04:19.342Z,100.05
2023-12-20T02:07:03.920Z,105.88
2023-12-20T02:09:39.982Z,104.40
2023-12-20T02:12:16.633Z,94.13
2023-12-20T02:14:49.535Z,96.63
2023-12-20T02:17:35.747Z,99.03
2023-12-20T02:20:13.763Z,97.93
2023-12-20T02:23:04.767Z,91.65
2023-12-20T02:25:47.131Z,93.38
2023-12-20T02:28:27.181Z,93.10
2023-12-20T02:31:05.200Z,97.45
2023-12-20T02:33:40.227Z,90.55
2023-12-20T02:36:21.443Z,94.95
2023-12-20T02:39:10.064Z,96.20
2023-12-20T02:41:53.893Z,92.75
2023-12-20T02:44:32.010Z,93.30
2023-12-20T02:49:54.934Z,96.35
2023-12-20T02:52:34.074Z,93.00
2023-12-20T02:55:20.266Z,92.53
2023-12-20T02:57:52.588Z,95.82
2023-12-20T03:00:30.214Z,95.47
2023-12-20T03:03:18.849Z,89.85
2023-12-20T03:05:55.098Z,93.50
2023-12-20T03:08:31.870Z,93.53
2023-12-20T03:11:20.302Z,92.65
2023-12-20T03:14:02.027Z,87.85
2023-12-20T03:16:38.637Z,88.38
2023-12-20T03:19:18.174Z,95.55
2023-12-20T03:21:51.246Z,88.30
2023-12-20T03:24:30.907Z,93.47
2023-12-20T03:27:11.841Z,91.53
2023-12-20T03:29:59.790Z,88.68
2023-12-20T03:32:41.751Z,91.65
2023-12-20T03:35:30.569Z,89.15
2023-12-20T03:38:11.015Z,90.50
2023-12-20T03:41:05.413Z,90.50
2023-12-20T03:43:51.636Z,94.25
2023-12-20T03:46:23.957Z,92.75
2023-12-20T03:49:03.732Z,94.53
2023-12-20T03:51:47.280Z,91.28
2023-12-20T03:54:22.360Z,93.60
2023-12-20T03:57:04.484Z,93.80
2023-12-20T03:59:48.618Z,102.10
2023-12-20T04:02:27.597Z,98.93
2023-12-20T04:05:07.065Z,102.43
2023-12-20T04:07:52.139Z,101.78
2023-12-20T04:10:36.162Z,106.15
2023-12-20T04:13:26.028Z,105.93
2023-12-20T04:16:13.433Z,106.60
2023-12-20T04:18:52.661Z,104.60
2023-12-20T04:21:41.106Z,107.17
2023-12-20T04:24:17.795Z,101.80
2023-12-20T04:26:54.234Z,103.38
2023-12-20T04:29:36.462Z,99.93
2023-12-20T04:32:19.679Z,97.88
2023-12-20T04:34:57.710Z,96.05
2023-12-20T04:37:32.847Z,96.38
2023-12-20T04:40:09.344Z,97.95
2023-12-20T04:42:50.792Z,95.88
2023-12-20T04:45:27.560Z,95.35
2023-12-20T04:48:13.208Z,88.20
2023-12-20T04:51:06.716Z,92.25
2023-12-20T04:53:42.569Z,90.22
2023-12-20T04:56:21.400Z,89.68
2023-12-20T04:58:56.811Z,93.82
2023-12-20T05:01:38.122Z,86.20
2023-12-20T05:04:23.641Z,91.20
2023-12-20T05:07:00.075Z,85.07
2023-12-20T05:09:33.260Z,98.80
2023-12-20T05:12:10.856Z,102.68
2023-12-20T05:14:41.753Z,103.88
2023-12-20T05:20:04.035Z,98.88
2023-12-20T05:22:38.601Z,100.95
2023-12-20T05:25:28.835Z,101.18
2023-12-20T05:28:05.028Z,97.28
2023-12-20T05:30:53.526Z,98.82
2023-12-20T05:33:32.410Z,103.97
2023-12-20T05:36:18.124Z,101.93
2023-12-20T05:39:03.360Z,109.28
2023-12-20T05:41:47.766Z,116.13
2023-12-20T05:44:27.872Z,108.70
2023-12-20T05:47:12.834Z,112.53
2023-12-20T05:49:54.380Z,114.90
2023-12-20T05:52:45.473Z,110.57
2023-12-20T05:58:20.550Z,118.57
2023-12-20T06:00:56.319Z,117.25
2023-12-20T06:03:42.286Z,118.20
2023-12-20T06:06:21.162Z,119.55
2023-12-20T06:09:05.399Z,133.85
2023-12-20T06:11:50.002Z,121.78
2023-12-20T06:14:28.331Z,124.32
2023-12-20T06:17:05.599Z,112.43
2023-12-20T06:19:45.466Z,114.05
2023-12-20T06:22:27.422Z,120.55
2023-12-20T06:25:06.276Z,127.15
2023-12-20T06:27:58.140Z,136.48
2023-12-20T06:30:38.074Z,138.63
2023-12-20T06:33:21.615Z,138.98
2023-12-20T06:35:57.230Z,141.93
2023-12-20T06:38:32.649Z,143.82
2023-12-20T06:41:25.504Z,145.60
2023-12-20T06:44:02.140Z,144.18
2023-12-20T06:46:55.591Z,146.52
2023-12-20T06:49:31.034Z,154.80
2023-12-20T06:52:18.457Z,164.50
2023-12-20T06:54:58.170Z,156.68
2023-12-20T06:57:43.261Z,157.43
2023-12-20T07:00:29.544Z,174.85
2023-12-20T07:03:10.605Z,156.00
2023-12-20T07:05:46.293Z,150.10
2023-12-20T07:08:24.133Z,173.55
2023-12-20T07:11:05.280Z,172.50
2023-12-20T07:14:02.282Z,178.63
2023-12-20T07:16:41.010Z,176.13
2023-12-20T07:19:25.594Z,172.20
2023-12-20T07:22:05.412Z,169.25
2023-12-20T07:24:43.946Z,174.05
2023-12-20T07:27:23.515Z,183.68
2023-12-20T07:30:10.886Z,190.48
2023-12-20T07:32:51.046Z,173.88
2023-12-20T07:35:30.745Z,186.50
2023-12-20T07:38:13.172Z,177.27
2023-12-20T07:40:50.738Z,170.85
2023-12-20T07:43:22.501Z,171.07
2023-12-20T07:46:06.303Z,175.95
2023-12-20T07:48:45.494Z,188.63
2023-12-20T07:51:25.078Z,191.55
2023-12-20T07:54:01.466Z,188.77
2023-12-20T07:56:32.359Z,182.23
2023-12-20T08:01:57.976Z,170.75
2023-12-20T08:04:36.525Z,159.23
2023-12-20T08:07:19.026Z,142.98
2023-12-20T08:09:58.059Z,144.30
2023-12-20T08:12:29.173Z,148.90
2023-12-20T08:15:17.279Z,153.98
2023-12-20T08:18:03.540Z,146.20
2023-12-20T08:20:42.609Z,147.68
2023-12-20T08:23:33.263Z,143.50
2023-12-20T08:28:49.985Z,134.63
2023-12-20T08:31:29.916Z,136.80
2023-12-20T08:34:09.312Z,137.40
2023-12-20T08:36:54.486Z,187.00
2023-12-20T08:39:29.032Z,153.27
2023-12-20T08:42:11.910Z,211.65
2023-12-20T08:45:01.654Z,241.02
2023-12-20T08:47:42.410Z,215.77
2023-12-20T08:50:35.166Z,168.40
2023-12-20T08:53:22.186Z,141.23
2023-12-20T08:56:03.605Z,140.70
2023-12-20T08:58:45.999Z,150.55
2023-12-20T09:01:22.520Z,160.25
2023-12-20T09:03:58.048Z,145.57
2023-12-20T09:06:43.067Z,146.18
2023-12-20T09:09:16.851Z,149.50
2023-12-20T09:11:50.991Z,135.48
2023-12-20T09:14:33.470Z,132.45
2023-12-20T09:17:17.438Z,130.40
2023-12-20T09:19:58.201Z,127.85
2023-12-20T09:22:47.622Z,128.65
2023-12-20T09:25:27.528Z,122.07
2023-12-20T09:28:20.581Z,122.13
2023-12-20T09:30:59.897Z,123.47
2023-12-20T09:33:41.081Z,122.65
2023-12-20T09:36:15.901Z,128.93
2023-12-20T09:38:57.234Z,121.03
2023-12-20T09:41:41.414Z,129.30
2023-12-20T09:44:26.523Z,128.65
2023-12-20T09:47:12.968Z,127.63
2023-12-20T09:50:00.117Z,125.28
2023-12-20T09:52:38.730Z,135.75
2023-12-20T09:55:25.992Z,130.85
2023-12-20T09:58:05.362Z,122.18
2023-12-20T10:00:36.211Z,128.50
2023-12-20T10:03:21.673Z,122.75
2023-12-20T10:06:06.934Z,120.70
2023-12-20T10:08:48.501Z,117.97
2023-12-20T10:11:46.299Z,118.55
2023-12-20T10:14:17.149Z,117.75
2023-12-20T10:16:51.588Z,115.45
2023-12-20T10:19:26.151Z,119.68
2023-12-20T10:22:08.763Z,154.27
2023-12-20T10:24:49.211Z,117.28
2023-12-20T10:27:31.638Z,122.15
2023-12-20T10:30:26.855Z,124.13
2023-12-20T10:33:05.146Z,128.38
2023-12-20T10:35:45.460Z,144.02
2023-12-20T10:38:23.414Z,141.13
2023-12-20T10:41:05.290Z,144.00
2023-12-20T10:43:50.434Z,155.32
2023-12-20T10:46:26.659Z,151.65
2023-12-20T10:49:04.840Z,163.02
2023-12-20T10:51:52.583Z,162.55
2023-12-20T10:54:35.228Z,151.23
2023-12-20T10:57:35.241Z,137.13
2023-12-20T11:00:20.531Z,122.53
2023-12-20T11:03:06.994Z,133.68
2023-12-20T11:05:51.056Z,142.18
2023-12-20T11:08:36.150Z,148.68
2023-12-20T11:11:23.807Z,145.23
2023-12-20T11:14:10.648Z,129.75
2023-12-20T11:16:54.921Z,125.07
2023-12-20T11:19:33.593Z,123.72
2023-12-20T11:22:22.139Z,131.02
2023-12-20T11:25:00.872Z,126.00
2023-12-20T11:27:38.960Z,119.57
2023-12-20T11:30:22.435Z,116.95
2023-12-20T11:33:07.496Z,112.03
2023-12-20T11:35:45.682Z,112.35
2023-12-20T11:38:29.649Z,107.15
2023-12-20T11:41:10.375Z,107.70
2023-12-20T11:43:54.205Z,113.28
2023-12-20T11:46:29.260Z,107.43
2023-12-20T11:49:22.642Z,110.28
2023-12-20T11:51:57.122Z,110.43
2023-12-20T11:54:37.346Z,117.65
2023-12-20T11:57:26.357Z,106.30
2023-12-20T12:00:01.953Z,107.70
2023-12-20T12:03:11.775Z,112.38
2023-12-20T12:05:54.199Z,121.15
2023-12-20T12:08:33.059Z,120.70
2023-12-20T12:11:13.501Z,122.60
2023-12-20T12:13:47.829Z,118.45
2023-12-20T12:16:37.173Z,126.03
2023-12-20T12:19:14.307Z,120.47
2023-12-20T12:22:13.870Z,124.65
2023-12-20T12:24:59.956Z,119.57
2023-12-20T12:27:34.455Z,119.05
2023-12-20T12:30:21.096Z,128.27
2023-12-20T12:33:00.957Z,125.60
2023-12-20T12:35:36.698Z,123.57
2023-12-20T12:38:28.585Z,131.65
2023-12-20T12:41:02.818Z,132.98
2023-12-20T12:43:45.679Z,129.55
2023-12-20T12:46:25.500Z,128.45
2023-12-20T12:49:02.660Z,124.38
2023-12-20T12:52:03.287Z,136.88
2023-12-20T12:54:50.161Z,132.60
2023-12-20T12:57:25.631Z,135.13
2023-12-20T12:59:59.974Z,135.50
2023-12-20T13:02:39.262Z,132.80
2023-12-20T13:05:21.202Z,125.78
2023-12-20T13:08:03.009Z,129.85
2023-12-20T13:11:05.260Z,141.77
2023-12-20T13:13:48.153Z,145.20
2023-12-20T13:16:32.119Z,143.13
2023-12-20T13:19:11.775Z,151.15
2023-12-20T13:21:45.097Z,154.90
2023-12-20T13:24:23.477Z,144.80
2023-12-20T13:27:04.420Z,147.70
2023-12-20T13:32:17.997Z,145.27
2023-12-20T13:34:56.404Z,154.10
2023-12-20T13:37:39.063Z,157.15
2023-12-20T13:40:20.722Z,151.85
2023-12-20T13:43:09.293Z,151.88
2023-12-20T13:46:03.047Z,153.15
2023-12-20T13:48:37.342Z,147.80
2023-12-20T13:51:12.037Z,155.60
2023-12-20T13:53:46.146Z,152.23
2023-12-20T13:56:25.351Z,147.15
2023-12-20T14:01:46.092Z,143.90
2023-12-20T14:04:41.180Z,150.52
2023-12-20T14:07:26.138Z,160.65
2023-12-20T14:10:06.029Z,151.05
2023-12-20T14:12:45.046Z,150.60
2023-12-20T14:15:18.101Z,160.07
2023-12-20T14:17:48.926Z,161.90
2023-12-20T14:22:49.824Z,165.50
2023-12-20T14:25:20.568Z,165.57
2023-12-20T14:27:51.261Z,168.55
2023-12-20T14:30:25.086Z,168.63
2023-12-20T14:32:55.690Z,182.75
2023-12-20T14:35:27.861Z,175.15
2023-12-20T14:37:58.756Z,178.43
2023-12-20T14:40:29.359Z,188.48
2023-12-20T14:42:59.868Z,182.32
2023-12-20T14:45:34.949Z,184.55
2023-12-20T14:48:06.599Z,221.30
2023-12-20T14:50:38.376Z,208.02
2023-12-20T14:53:08.871Z,207.25
2023-12-20T14:55:40.900Z,209.65
2023-12-20T14:58:11.854Z,210.27
2023-12-20T15:03:17.929Z,189.75
2023-12-20T15:05:49.454Z,187.75
2023-12-20T15:08:20.133Z,188.18
2023-12-20T15:10:50.660Z,191.63
2023-12-20T15:13:21.386Z,197.15
2023-12-20T15:15:54.888Z,166.82
2023-12-20T15:18:25.781Z,133.23
2023-12-20T15:20:56.745Z,124.18
2023-12-20T15:25:58.090Z,132.80
2023-12-20T15:28:28.507Z,127.88
2023-12-20T15:31:01.837Z,126.90
2023-12-20T15:33:32.607Z,128.00
2023-12-20T15:36:03.166Z,129.05
2023-12-20T15:38:33.585Z,121.93
2023-12-20T15:41:04.596Z,125.95
2023-12-20T15:43:35.208Z,135.77
2023-12-20T15:46:18.316Z,127.13
2023-12-20T15:48:48.869Z,135.05
2023-12-20T15:51:19.460Z,137.48
2023-12-20T15:53:50.040Z,144.25
2023-12-20T15:56:20.895Z,135.00
2023-12-20T15:58:56.130Z,134.43
2023-12-20T16:01:29.187Z,128.55
2023-12-20T16:04:00.359Z,123.40
2023-12-20T16:06:31.600Z,127.68
2023-12-20T16:11:33.246Z,137.43
2023-12-20T16:14:03.655Z,129.95
2023-12-20T16:16:36.946Z,130.65
2023-12-20T16:19:07.413Z,130.80
2023-12-20T16:21:37.871Z,141.05
2023-12-20T16:24:09.798Z,133.77
2023-12-20T16:26:40.460Z,127.93
2023-12-20T16:29:11.597Z,130.95
2023-12-20T16:31:44.771Z,129.40
2023-12-20T16:34:15.369Z,134.90
2023-12-20T16:37:01.229Z,133.27
2023-12-20T16:39:32.763Z,140.02
2023-12-20T16:42:03.410Z,140.63
2023-12-20T16:44:34.373Z,141.90
2023-12-20T16:49:37.749Z,148.27
2023-12-20T16:52:09.047Z,147.75
2023-12-20T16:54:39.557Z,232.55
2023-12-20T16:57:10.256Z,235.05
2023-12-20T16:59:40.631Z,180.43
2023-12-20T17:02:13.956Z,207.55
2023-12-20T17:04:44.627Z,236.70
2023-12-20T17:07:15.140Z,194.57
2023-12-20T17:09:46.214Z,183.82
2023-12-20T17:14:51.682Z,190.80
2023-12-20T17:17:24.735Z,185.25
2023-12-20T17:19:55.199Z,208.30
2023-12-20T17:22:26.032Z,255.55
2023-12-20T17:24:56.563Z,220.13
2023-12-20T17:27:27.402Z,173.88
2023-12-20T17:29:57.833Z,161.20
2023-12-20T17:32:30.895Z,164.48
2023-12-20T17:35:01.533Z,158.38
2023-12-20T17:37:32.043Z,165.13
2023-12-20T17:40:05.639Z,158.30
2023-12-20T17:42:36.059Z,159.48
2023-12-20T17:45:07.113Z,160.38
2023-12-20T17:47:40.426Z,165.95
2023-12-20T17:50:13.751Z,164.27
2023-12-20T17:52:44.481Z,172.20
2023-12-20T17:55:15.227Z,173.32
2023-12-20T17:57:46.368Z,167.57
2023-12-20T18:00:23.205Z,172.18
2023-12-20T18:02:56.681Z,172.98
2023-12-20T18:05:27.309Z,176.63
2023-12-20T18:07:57.914Z,213.82
2023-12-20T18:10:29.499Z,168.65
2023-12-20T18:13:00.967Z,175.90
2023-12-20T18:15:31.410Z,182.95
2023-12-20T18:18:04.739Z,184.48
2023-12-20T18:20:35.388Z,173.57
2023-12-20T18:23:11.084Z,176.23
2023-12-20T18:25:42.833Z,174.13
2023-12-20T18:28:13.260Z,166.65
2023-12-20T18:30:43.767Z,171.70
2023-12-20T18:33:17.054Z,169.43
2023-12-20T18:35:57.342Z,173.00
2023-12-20T18:38:31.646Z,172.80
2023-12-20T18:41:02.033Z,157.60
2023-12-20T18:43:32.570Z,152.32
2023-12-20T18:46:04.073Z,136.35
2023-12-20T18:48:37.720Z,138.65
2023-12-20T18:51:08.923Z,126.47
2023-12-20T18:53:39.593Z,126.22
2023-12-20T18:56:10.873Z,130.40
2023-12-20T18:58:41.525Z,131.73
2023-12-20T19:01:12.631Z,187.38
2023-12-20T19:03:46.467Z,147.85
2023-12-20T19:06:17.333Z,133.90
2023-12-20T19:08:51.613Z,136.85
2023-12-20T19:11:22.768Z,138.18
2023-12-20T19:13:53.461Z,136.43
2023-12-20T19:16:24.750Z,135.50
2023-12-20T19:18:58.197Z,139.40
2023-12-20T19:21:28.835Z,131.63
2023-12-20T19:24:04.058Z,127.50
2023-12-20T19:26:34.527Z,123.00
2023-12-20T19:29:05.241Z,118.35
2023-12-20T19:31:37.123Z,119.35
2023-12-20T19:34:10.485Z,126.05
2023-12-20T19:36:41.160Z,113.10
2023-12-20T19:39:11.579Z,110.05
2023-12-20T19:41:42.024Z,117.25
2023-12-20T19:44:12.480Z,116.88
2023-12-20T19:46:43.609Z,107.80
2023-12-20T19:49:16.920Z,106.57
2023-12-20T19:51:47.621Z,101.53
2023-12-20T19:54:18.809Z,108.90
2023-12-20T19:59:20.022Z,101.68
2023-12-20T20:01:50.793Z,111.88
2023-12-20T20:06:59.160Z,115.93
2023-12-20T20:12:01.700Z,113.05
2023-12-20T20:14:32.149Z,109.50
2023-12-20T20:17:03.457Z,100.55
2023-12-20T20:19:36.604Z,101.80
2023-12-20T20:22:07.538Z,103.70
2023-12-20T20:27:08.602Z,96.85
2023-12-20T20:29:39.283Z,103.30
2023-12-20T20:32:12.719Z,109.00
2023-12-20T20:34:46.137Z,99.35
2023-12-20T20:37:16.693Z,106.85
2023-12-20T20:39:49.797Z,103.10
2023-12-20T20:42:21.507Z,104.65
2023-12-20T20:44:52.123Z,108.65
2023-12-20T20:47:22.631Z,101.88
2023-12-20T20:49:58.192Z,103.80
2023-12-20T20:52:29.264Z,103.88
2023-12-20T20:55:00.429Z,104.13
2023-12-20T20:57:31.011Z,97.85
2023-12-20T21:00:01.473Z,106.40
2023-12-20T21:02:32.133Z,107.55
2023-12-20T21:05:08.006Z,109.78
2023-12-20T21:07:38.755Z,102.95
2023-12-20T21:10:10.839Z,96.38
2023-12-20T21:12:41.252Z,93.50
2023-12-20T21:15:15.477Z,87.53
2023-12-20T21:17:46.319Z,93.35
2023-12-20T21:20:20.064Z,84.35
2023-12-20T21:22:50.587Z,97.88
2023-12-20T21:25:22.932Z,84.90
2023-12-20T21:27:53.666Z,85.65
2023-12-20T21:30:24.226Z,87.20
2023-12-20T21:32:54.745Z,84.63
2023-12-20T21:35:27.798Z,78.28
2023-12-20T21:37:58.388Z,78.25
2023-12-20T21:40:28.969Z,79.93
2023-12-20T21:42:59.749Z,76.22
2023-12-20T21:45:30.242Z,70.85
2023-12-20T21:48:00.688Z,73.75
2023-12-20T21:50:34.796Z,75.43
2023-12-20T21:53:12.576Z,70.78
2023-12-20T21:55:44.194Z,70.07
2023-12-20T21:58:14.694Z,63.72
2023-12-20T22:00:45.177Z,71.15
2023-12-20T22:03:15.714Z,65.03
2023-12-20T22:05:50.119Z,68.25
2023-12-20T22:08:20.671Z,65.82
2023-12-20T22:10:51.110Z,68.10
2023-12-20T22:13:21.676Z,61.47
2023-12-20T22:15:52.600Z,62.83
2023-12-20T22:18:23.050Z,57.75
2023-12-20T22:20:57.338Z,61.58
2023-12-20T22:23:38.582Z,59.65
2023-12-20T22:26:09.593Z,62.30
2023-12-20T22:28:40.340Z,56.85
2023-12-20T22:31:10.887Z,63.25
2023-12-20T22:33:41.355Z,65.13
2023-12-20T22:36:14.693Z,63.85
2023-12-20T22:38:45.084Z,62.58
2023-12-20T22:41:16.102Z,58.08
2023-12-20T22:46:18.263Z,54.22
2023-12-20T22:48:49.190Z,53.38
2023-12-20T22:51:22.606Z,56.83
2023-12-20T22:53:57.207Z,54.38
2023-12-20T22:56:28.212Z,54.20
2023-12-20T23:01:29.295Z,55.45
2023-12-20T23:06:32.809Z,50.33
2023-12-20T23:09:04.300Z,55.17
2023-12-20T23:11:34.768Z,51.35
2023-12-20T23:14:10.466Z,51.53
2023-12-20T23:16:47.684Z,51.00
2023-12-20T23:19:18.354Z,54.60
2023-12-20T23:21:51.786Z,54.13
2023-12-20T23:24:22.867Z,53.65
2023-12-20T23:26:54.410Z,49.67
2023-12-20T23:29:24.868Z,48.80
2023-12-20T23:31:55.313Z,51.55
2023-12-20T23:34:25.801Z,48.97
2023-12-20T23:36:58.880Z,46.42
2023-12-20T23:39:29.320Z,50.22
2023-12-20T23:41:59.906Z,50.40
2023-12-20T23:44:30.329Z,48.13
2023-12-20T23:47:00.723Z,57.38
2023-12-20T23:49:32.147Z,53.80
2023-12-20T23:52:05.525Z,57.17
2023-12-20T23:54:35.997Z,51.58
2023-12-20T23:57:06.605Z,47.33
2023-12-20T23:59:36.963Z,46.80
